Time;durP1;ratioP1;P1;durP2;ratioP2;P2;SDS_P1;SDS_P2;PMS_P1;PMS_P2;Temp;Humidity;BMP_temperature;BMP_pressure;BME280_temperature;BME280_humidity;BME280_pressure;Samples;Min_cycle;Max_cycle;Signal;HPM_P1;HPM_P2
2022/09/15 00:01:24;;;;;;;18.23;6.57;;;;;;;;;;3394618;42;20086;-59
2022/09/15 00:03:50;;;;;;;15.77;5.97;;;;;;;;;;3393610;42;20233;-61
2022/09/15 00:06:16;;;;;;;16.02;5.88;;;;;;;;;;3393700;42;20154;-61
2022/09/15 00:08:42;;;;;;;15.03;5.33;;;;;;;;;;3384635;42;20648;-60
2022/09/15 00:11:16;;;;;;;14.43;5.72;;;;;;;;;;3393775;42;20563;-60
2022/09/15 00:13:42;;;;;;;13.63;5.20;;;;;;;;;;3385661;42;20096;-60
2022/09/15 00:16:09;;;;;;;12.07;4.97;;;;;;;;;;3393888;42;20095;-61
2022/09/15 00:18:35;;;;;;;12.10;4.97;;;;;;;;;;3383062;42;20120;-60
2022/09/15 00:21:09;;;;;;;17.30;4.57;;;;;;;;;;3392363;42;20557;-60
2022/09/15 00:23:35;;;;;;;12.85;4.60;;;;;;;;;;3384764;42;20138;-60
2022/09/15 00:26:06;;;;;;;11.43;4.38;;;;;;;;;;3385046;42;20546;-61
2022/09/15 00:28:32;;;;;;;12.73;4.38;;;;;;;;;;3373245;42;20558;-60
2022/09/15 00:30:57;;;;;;;11.40;4.13;;;;;;;;;;3393580;42;20552;-60
2022/09/15 00:33:23;;;;;;;8.73;3.30;;;;;;;;;;3393536;42;20101;-61
2022/09/15 00:35:52;;;;;;;12.35;3.50;;;;;;;;;;3393699;42;20109;-60
2022/09/15 00:38:18;;;;;;;9.18;3.80;;;;;;;;;;3393626;42;20082;-61
2022/09/15 00:40:54;;;;;;;12.23;3.83;;;;;;;;;;3384798;42;20089;-60
2022/09/15 00:43:43;;;;;;;12.50;3.63;;;;;;;;;;3393373;42;20173;-61
2022/09/15 00:46:09;;;;;;;9.85;3.28;;;;;;;;;;3393548;42;20091;-61
2022/09/15 00:48:36;;;;;;;8.25;3.35;;;;;;;;;;3393249;42;20150;-61
2022/09/15 00:51:02;;;;;;;9.38;3.30;;;;;;;;;;3384207;42;20561;-61
2022/09/15 00:53:28;;;;;;;11.50;3.38;;;;;;;;;;3373719;42;20082;-60
2022/09/15 00:55:54;;;;;;;8.93;3.23;;;;;;;;;;3373426;42;20083;-61
2022/09/15 00:58:24;;;;;;;15.38;3.90;;;;;;;;;;3384364;42;20595;-60
2022/09/15 01:00:55;;;;;;;10.68;3.38;;;;;;;;;;3374300;42;20087;-60
2022/09/15 01:03:25;;;;;;;8.50;2.97;;;;;;;;;;3382535;42;20505;-60
2022/09/15 01:05:54;;;;;;;13.32;3.53;;;;;;;;;;3364215;42;20593;-60
2022/09/15 01:08:20;;;;;;;14.00;3.40;;;;;;;;;;3371371;42;20553;-60
2022/09/15 01:10:46;;;;;;;11.77;3.40;;;;;;;;;;3376574;42;20640;-59
2022/09/15 01:13:13;;;;;;;9.60;3.10;;;;;;;;;;3393313;42;20634;-60
2022/09/15 01:16:12;;;;;;;12.75;3.50;;;;;;;;;;3384276;42;20102;-60
2022/09/15 01:18:55;;;;;;;14.10;4.40;;;;;;;;;;3391149;42;20175;-61
2022/09/15 01:21:53;;;;;;;11.50;3.43;;;;;;;;;;3384213;42;20533;-61
2022/09/15 01:24:42;;;;;;;12.55;3.40;;;;;;;;;;3389356;42;20122;-61
2022/09/15 01:27:48;;;;;;;12.50;3.65;;;;;;;;;;3381623;42;20094;-60
2022/09/15 01:30:17;;;;;;;12.63;3.28;;;;;;;;;;3383070;42;20095;-61
2022/09/15 01:33:05;;;;;;;13.10;4.10;;;;;;;;;;3394050;42;20090;-61
2022/09/15 01:35:51;;;;;;;13.33;3.40;;;;;;;;;;3385405;42;20099;-63
2022/09/15 01:38:45;;;;;;;15.23;3.63;;;;;;;;;;3391930;42;20094;-61
2022/09/15 01:41:24;;;;;;;14.30;4.00;;;;;;;;;;3392430;42;20090;-60
2022/09/15 01:44:12;;;;;;;13.75;3.50;;;;;;;;;;3373139;42;20090;-62
2022/09/15 01:46:45;;;;;;;14.75;3.78;;;;;;;;;;3372765;42;20132;-62
2022/09/15 01:49:14;;;;;;;15.47;3.97;;;;;;;;;;3371994;42;20098;-60
2022/09/15 01:51:40;;;;;;;15.65;3.60;;;;;;;;;;3382620;42;20093;-60
2022/09/15 01:54:06;;;;;;;14.63;3.55;;;;;;;;;;3383688;42;20078;-61
2022/09/15 01:56:32;;;;;;;15.38;3.67;;;;;;;;;;3383769;42;20086;-60
2022/09/15 01:58:58;;;;;;;15.57;4.47;;;;;;;;;;3382720;42;20079;-61
2022/09/15 02:01:46;;;;;;;10.30;3.33;;;;;;;;;;3392584;42;20423;-60
2022/09/15 02:04:20;;;;;;;15.23;4.18;;;;;;;;;;3376066;42;20152;-61
2022/09/15 02:06:54;;;;;;;13.70;3.85;;;;;;;;;;3383052;42;20507;-62
2022/09/15 02:09:27;;;;;;;16.38;3.85;;;;;;;;;;3384055;42;20571;-60
2022/09/15 02:11:59;;;;;;;15.57;3.70;;;;;;;;;;3372598;42;20185;-59
2022/09/15 02:14:55;;;;;;;13.95;4.50;;;;;;;;;;3375829;42;20172;-59
2022/09/15 02:17:21;;;;;;;17.42;4.55;;;;;;;;;;3384090;42;20090;-61
2022/09/15 02:19:53;;;;;;;12.10;4.18;;;;;;;;;;3382569;42;20126;-60
2022/09/15 02:22:27;;;;;;;21.52;4.15;;;;;;;;;;3378134;42;20127;-60
2022/09/15 02:25:16;;;;;;;20.30;4.27;;;;;;;;;;3383736;42;20108;-62
2022/09/15 02:27:43;;;;;;;15.00;4.53;;;;;;;;;;3368002;42;20152;-61
2022/09/15 02:30:11;;;;;;;17.50;3.90;;;;;;;;;;3376104;42;20090;-61
2022/09/15 02:32:39;;;;;;;15.90;3.50;;;;;;;;;;3383458;42;20098;-60
2022/09/15 02:35:06;;;;;;;14.65;4.20;;;;;;;;;;3371770;42;20083;-61
2022/09/15 02:37:32;;;;;;;15.23;3.27;;;;;;;;;;3381468;42;20106;-61
2022/09/15 02:39:58;;;;;;;20.90;3.50;;;;;;;;;;3383790;42;20531;-60
2022/09/15 02:42:30;;;;;;;13.02;4.03;;;;;;;;;;3375403;42;20095;-61
2022/09/15 02:44:56;;;;;;;13.77;3.20;;;;;;;;;;3383591;42;20105;-60
2022/09/15 02:47:22;;;;;;;15.85;3.70;;;;;;;;;;3383418;42;20109;-60
2022/09/15 02:49:48;;;;;;;23.97;4.50;;;;;;;;;;3392729;42;20495;-61
2022/09/15 02:52:14;;;;;;;20.35;3.97;;;;;;;;;;3393028;42;20172;-61
2022/09/15 02:54:40;;;;;;;17.52;3.58;;;;;;;;;;3392294;42;20078;-61
2022/09/15 02:57:06;;;;;;;20.08;3.78;;;;;;;;;;3392041;42;20138;-60
2022/09/15 03:02:18;;;;;;;16.87;3.50;;;;;;;;;;3386010;42;20101;-60
2022/09/15 03:04:48;;;;;;;16.92;3.88;;;;;;;;;;3392497;42;20086;-62
2022/09/15 03:07:15;;;;;;;15.95;3.60;;;;;;;;;;3392589;42;20094;-59
2022/09/15 03:09:41;;;;;;;16.80;3.47;;;;;;;;;;3392652;42;20504;-61
2022/09/15 03:12:07;;;;;;;20.05;4.35;;;;;;;;;;3392467;42;20606;-62
2022/09/15 03:14:34;;;;;;;15.67;3.53;;;;;;;;;;3383471;42;20109;-60
2022/09/15 03:17:01;;;;;;;14.90;3.42;;;;;;;;;;3392367;42;20421;-63
2022/09/15 03:19:27;;;;;;;16.63;4.22;;;;;;;;;;3371432;42;20160;-64
2022/09/15 03:21:53;;;;;;;22.70;3.60;;;;;;;;;;3382464;42;20090;-61
2022/09/15 03:24:19;;;;;;;17.40;4.00;;;;;;;;;;3391811;42;20533;-61
2022/09/15 03:26:46;;;;;;;16.93;3.93;;;;;;;;;;3382490;42;20274;-56
2022/09/15 03:29:12;;;;;;;20.77;4.03;;;;;;;;;;3392729;42;20562;-58
2022/09/15 03:31:38;;;;;;;15.73;3.53;;;;;;;;;;3392866;42;20099;-64
2022/09/15 03:34:04;;;;;;;14.82;3.40;;;;;;;;;;3386239;42;20121;-59
2022/09/15 03:36:30;;;;;;;17.45;3.70;;;;;;;;;;3393850;42;20492;-61
2022/09/15 03:38:59;;;;;;;16.73;3.67;;;;;;;;;;3393749;42;20596;-60
2022/09/15 03:41:26;;;;;;;12.27;3.25;;;;;;;;;;3393370;42;20095;-61
2022/09/15 03:43:53;;;;;;;23.83;3.58;;;;;;;;;;3386608;42;20129;-60
2022/09/15 03:46:19;;;;;;;17.95;3.72;;;;;;;;;;3373398;42;20082;-61
2022/09/15 03:48:46;;;;;;;15.27;3.03;;;;;;;;;;3393490;42;20554;-60
2022/09/15 03:51:12;;;;;;;17.05;3.70;;;;;;;;;;3393651;42;20113;-60
2022/09/15 03:53:39;;;;;;;19.33;3.28;;;;;;;;;;3392990;42;20578;-59
2022/09/15 03:56:18;;;;;;;19.02;3.42;;;;;;;;;;3384612;42;20090;-60
2022/09/15 03:58:44;;;;;;;17.00;3.70;;;;;;;;;;3383701;42;20157;-61
2022/09/15 04:01:11;;;;;;;16.80;3.90;;;;;;;;;;3393897;42;20094;-62
2022/09/15 04:03:37;;;;;;;16.17;3.42;;;;;;;;;;3394100;42;20642;-60
2022/09/15 04:06:03;;;;;;;13.52;3.40;;;;;;;;;;3394042;42;20094;-60
2022/09/15 04:08:29;;;;;;;20.00;3.88;;;;;;;;;;3394309;42;20583;-59
2022/09/15 04:10:55;;;;;;;17.27;3.97;;;;;;;;;;3394401;42;20213;-58
2022/09/15 04:13:21;;;;;;;21.40;4.33;;;;;;;;;;3393996;42;20335;-61
2022/09/15 04:15:56;;;;;;;19.27;3.80;;;;;;;;;;3393528;42;20572;-60
2022/09/15 04:18:22;;;;;;;16.42;4.00;;;;;;;;;;3374822;42;20097;-60
2022/09/15 04:20:47;;;;;;;21.85;4.25;;;;;;;;;;3393645;42;20087;-61
2022/09/15 04:23:13;;;;;;;21.47;3.37;;;;;;;;;;3393317;42;20088;-62
2022/09/15 04:25:39;;;;;;;21.30;3.75;;;;;;;;;;3392711;42;20139;-60
2022/09/15 04:28:05;;;;;;;19.05;3.85;;;;;;;;;;3383737;42;20090;-61
2022/09/15 04:30:31;;;;;;;13.63;3.42;;;;;;;;;;3392777;42;20090;-62
2022/09/15 04:32:57;;;;;;;13.67;3.60;;;;;;;;;;3392814;42;20097;-60
2022/09/15 04:35:23;;;;;;;19.05;4.20;;;;;;;;;;3392729;42;20156;-60
2022/09/15 04:37:50;;;;;;;17.00;3.83;;;;;;;;;;3393099;42;20183;-62
2022/09/15 04:40:16;;;;;;;23.60;4.15;;;;;;;;;;3392795;42;20095;-59
2022/09/15 04:42:42;;;;;;;20.80;3.30;;;;;;;;;;3393280;42;20093;-62
2022/09/15 04:45:08;;;;;;;26.70;3.85;;;;;;;;;;3394673;42;20091;-61
2022/09/15 04:47:34;;;;;;;16.23;3.80;;;;;;;;;;3392673;42;20173;-62
2022/09/15 04:50:01;;;;;;;16.42;3.20;;;;;;;;;;3393013;42;20100;-61
2022/09/15 04:52:27;;;;;;;15.75;3.97;;;;;;;;;;3384527;42;20128;-63
2022/09/15 04:54:53;;;;;;;17.73;3.83;;;;;;;;;;3392408;42;20091;-62
2022/09/15 04:57:19;;;;;;;16.98;3.10;;;;;;;;;;3392120;42;20162;-61
2022/09/15 04:59:45;;;;;;;23.55;3.83;;;;;;;;;;3395663;42;20086;-61
2022/09/15 05:02:11;;;;;;;17.50;3.78;;;;;;;;;;3384483;42;20097;-62
2022/09/15 05:04:37;;;;;;;15.43;3.50;;;;;;;;;;3392006;42;20602;-64
2022/09/15 05:07:03;;;;;;;16.70;3.93;;;;;;;;;;3392310;42;20933;-62
2022/09/15 05:09:30;;;;;;;19.45;3.53;;;;;;;;;;3392185;42;20098;-62
2022/09/15 05:11:56;;;;;;;14.05;3.80;;;;;;;;;;3383033;42;20098;-61
2022/09/15 05:14:22;;;;;;;14.13;3.92;;;;;;;;;;3393497;42;20098;-61
2022/09/15 05:16:48;;;;;;;22.92;3.90;;;;;;;;;;3393112;42;20863;-62
2022/09/15 05:19:14;;;;;;;17.87;3.80;;;;;;;;;;3385621;42;20154;-62
2022/09/15 05:21:40;;;;;;;26.45;3.88;;;;;;;;;;3392497;42;20164;-63
2022/09/15 05:24:06;;;;;;;19.63;3.72;;;;;;;;;;3395107;42;20090;-63
2022/09/15 05:26:32;;;;;;;17.40;3.55;;;;;;;;;;3394861;42;20142;-64
2022/09/15 05:28:58;;;;;;;14.37;3.30;;;;;;;;;;3393960;42;20090;-62
2022/09/15 05:31:26;;;;;;;16.40;3.30;;;;;;;;;;3392845;42;20098;-62
2022/09/15 05:33:52;;;;;;;20.92;3.88;;;;;;;;;;3383556;42;20595;-63
2022/09/15 05:36:19;;;;;;;23.88;4.15;;;;;;;;;;3383293;42;20133;-63
2022/09/15 05:38:45;;;;;;;15.55;3.28;;;;;;;;;;3392234;42;20123;-62
2022/09/15 05:41:14;;;;;;;14.30;3.60;;;;;;;;;;3393390;42;20105;-61
2022/09/15 05:43:40;;;;;;;15.63;3.13;;;;;;;;;;3371598;42;20188;-64
2022/09/15 05:46:06;;;;;;;19.45;3.63;;;;;;;;;;3382278;42;20558;-63
2022/09/15 05:48:33;;;;;;;16.90;3.47;;;;;;;;;;3392405;42;20087;-61
2022/09/15 05:50:59;;;;;;;18.45;3.65;;;;;;;;;;3383026;42;20186;-62
2022/09/15 05:53:25;;;;;;;17.17;3.60;;;;;;;;;;3391652;42;20465;-62
2022/09/15 05:55:55;;;;;;;17.02;3.35;;;;;;;;;;3382498;42;20094;-62
2022/09/15 05:58:22;;;;;;;18.13;3.70;;;;;;;;;;3393593;42;20577;-62
2022/09/15 06:00:48;;;;;;;22.13;3.90;;;;;;;;;;3395887;42;20092;-63
2022/09/15 06:03:14;;;;;;;14.40;3.73;;;;;;;;;;3395046;42;20205;-61
2022/09/15 06:05:40;;;;;;;14.37;3.80;;;;;;;;;;3393840;42;20289;-62
2022/09/15 06:08:06;;;;;;;15.45;4.20;;;;;;;;;;3386415;42;20116;-64
2022/09/15 06:10:32;;;;;;;18.90;4.18;;;;;;;;;;3378307;42;20102;-60
2022/09/15 06:12:58;;;;;;;22.52;4.25;;;;;;;;;;3394835;42;20125;-62
2022/09/15 06:15:24;;;;;;;16.80;4.83;;;;;;;;;;3396271;42;20100;-62
2022/09/15 06:17:50;;;;;;;22.23;4.53;;;;;;;;;;3387142;42;20086;-61
2022/09/15 06:20:17;;;;;;;22.73;4.65;;;;;;;;;;3385172;42;20086;-63
2022/09/15 06:22:44;;;;;;;19.58;5.25;;;;;;;;;;3383985;42;20096;-61
2022/09/15 06:25:12;;;;;;;17.98;4.50;;;;;;;;;;3394888;42;20086;-62
2022/09/15 06:27:38;;;;;;;13.30;3.97;;;;;;;;;;3394148;42;20517;-62
2022/09/15 06:30:06;;;;;;;19.88;4.13;;;;;;;;;;3392833;42;20141;-62
2022/09/15 06:32:32;;;;;;;15.50;4.72;;;;;;;;;;3393358;42;20485;-61
2022/09/15 06:34:58;;;;;;;16.60;4.32;;;;;;;;;;3393128;42;20199;-61
2022/09/15 06:37:24;;;;;;;19.33;5.07;;;;;;;;;;3395383;42;20137;-62
2022/09/15 06:39:50;;;;;;;20.43;5.03;;;;;;;;;;3395845;42;20161;-63
2022/09/15 06:42:16;;;;;;;19.10;4.38;;;;;;;;;;3395759;42;20098;-61
2022/09/15 06:44:42;;;;;;;17.92;5.13;;;;;;;;;;3396572;42;20077;-62
2022/09/15 06:47:09;;;;;;;21.95;5.25;;;;;;;;;;3394803;42;20175;-64
2022/09/15 06:49:35;;;;;;;19.20;4.72;;;;;;;;;;3394524;42;20109;-61
2022/09/15 06:52:01;;;;;;;14.77;4.90;;;;;;;;;;3378564;42;20109;-61
2022/09/15 06:54:27;;;;;;;20.83;5.00;;;;;;;;;;3385484;42;20133;-62
2022/09/15 06:56:53;;;;;;;20.02;5.18;;;;;;;;;;3395264;42;20171;-61
2022/09/15 06:59:19;;;;;;;21.13;4.90;;;;;;;;;;3386229;42;20094;-61
2022/09/15 07:01:45;;;;;;;18.73;5.18;;;;;;;;;;3395058;42;20470;-61
2022/09/15 07:04:11;;;;;;;13.77;5.10;;;;;;;;;;3394956;42;20153;-63
2022/09/15 07:06:38;;;;;;;16.02;4.50;;;;;;;;;;3396334;42;20097;-62
2022/09/15 07:09:04;;;;;;;18.25;5.53;;;;;;;;;;3388140;42;20113;-61
2022/09/15 07:11:30;;;;;;;15.32;4.30;;;;;;;;;;3397796;42;20154;-61
2022/09/15 07:13:57;;;;;;;18.10;4.63;;;;;;;;;;3397860;42;20091;-62
2022/09/15 07:16:24;;;;;;;15.50;4.80;;;;;;;;;;3397204;42;20105;-61
2022/09/15 07:18:50;;;;;;;16.02;4.75;;;;;;;;;;3395899;42;20557;-63
2022/09/15 07:21:18;;;;;;;21.30;4.85;;;;;;;;;;3397360;42;20082;-61
2022/09/15 07:23:44;;;;;;;17.85;4.85;;;;;;;;;;3386392;42;20100;-63
2022/09/15 07:26:17;;;;;;;16.77;4.97;;;;;;;;;;3387540;42;20494;-61
2022/09/15 07:28:45;;;;;;;14.98;4.38;;;;;;;;;;3396638;42;20105;-61
2022/09/15 07:31:13;;;;;;;16.60;4.90;;;;;;;;;;3397947;42;20109;-62
2022/09/15 07:33:39;;;;;;;18.65;4.78;;;;;;;;;;3395700;42;20090;-63
2022/09/15 07:36:06;;;;;;;19.17;4.70;;;;;;;;;;3396847;42;20082;-60
2022/09/15 07:38:33;;;;;;;16.93;4.80;;;;;;;;;;3396381;42;20152;-62
2022/09/15 07:41:06;;;;;;;19.02;4.50;;;;;;;;;;3387270;42;20465;-62
2022/09/15 07:43:32;;;;;;;16.55;4.65;;;;;;;;;;3386395;42;20094;-62
2022/09/15 07:45:59;;;;;;;18.83;5.82;;;;;;;;;;3395213;42;20544;-62
2022/09/15 07:48:25;;;;;;;19.00;5.07;;;;;;;;;;3394935;42;20109;-61
2022/09/15 07:50:51;;;;;;;19.33;4.70;;;;;;;;;;3394740;42;20168;-64
2022/09/15 07:53:17;;;;;;;22.77;5.40;;;;;;;;;;3394941;42;20197;-62
2022/09/15 07:55:43;;;;;;;15.55;4.75;;;;;;;;;;3398025;42;20411;-64
2022/09/15 07:58:09;;;;;;;18.27;5.47;;;;;;;;;;3394371;42;20146;-63
2022/09/15 08:00:36;;;;;;;23.73;4.70;;;;;;;;;;3388467;42;20153;-61
2022/09/15 08:03:02;;;;;;;18.77;4.32;;;;;;;;;;3396158;42;20083;-62
2022/09/15 08:05:28;;;;;;;14.15;4.70;;;;;;;;;;3387302;42;20127;-62
2022/09/15 08:07:54;;;;;;;19.88;4.90;;;;;;;;;;3395962;42;20581;-61
2022/09/15 08:10:24;;;;;;;12.98;5.38;;;;;;;;;;3397140;42;20188;-62
2022/09/15 08:12:51;;;;;;;14.53;4.47;;;;;;;;;;3386616;42;20112;-61
2022/09/15 08:15:17;;;;;;;14.77;5.03;;;;;;;;;;3396829;42;20081;-62
2022/09/15 08:17:43;;;;;;;16.13;4.93;;;;;;;;;;3396428;42;20163;-62
2022/09/15 08:20:10;;;;;;;17.98;5.10;;;;;;;;;;3379223;42;20172;-62
2022/09/15 08:22:36;;;;;;;18.13;4.85;;;;;;;;;;3395637;42;20094;-64
2022/09/15 08:25:02;;;;;;;15.83;4.83;;;;;;;;;;3387586;42;20086;-62
2022/09/15 08:27:28;;;;;;;16.77;5.63;;;;;;;;;;3397090;42;20591;-62
2022/09/15 08:29:54;;;;;;;13.43;5.05;;;;;;;;;;3387421;42;20094;-63
2022/09/15 08:32:20;;;;;;;14.48;4.38;;;;;;;;;;3396736;42;20143;-63
2022/09/15 08:34:46;;;;;;;13.17;4.80;;;;;;;;;;3386698;42;20082;-62
2022/09/15 08:37:12;;;;;;;11.20;4.03;;;;;;;;;;3396001;42;20558;-63
2022/09/15 08:39:38;;;;;;;12.32;4.32;;;;;;;;;;3387650;42;20546;-62
2022/09/15 08:42:04;;;;;;;10.20;4.10;;;;;;;;;;3396118;42;20104;-62
2022/09/15 08:44:59;;;;;;;11.98;3.92;;;;;;;;;;3394621;42;20156;-61
2022/09/15 08:47:33;;;;;;;11.87;3.97;;;;;;;;;;3386696;42;20101;-63
2022/09/15 08:49:58;;;;;;;12.45;4.07;;;;;;;;;;3396735;42;20109;-62
2022/09/15 08:52:29;;;;;;;12.30;4.60;;;;;;;;;;3386224;42;20103;-62
2022/09/15 08:54:57;;;;;;;11.40;4.00;;;;;;;;;;3394632;42;20106;-65
2022/09/15 08:57:24;;;;;;;13.33;4.07;;;;;;;;;;3387541;42;20087;-63
2022/09/15 08:59:50;;;;;;;13.27;4.60;;;;;;;;;;3387735;42;20094;-62
2022/09/15 09:03:01;;;;;;;10.80;3.85;;;;;;;;;;3395250;42;20634;-59
2022/09/15 09:06:22;;;;;;;8.80;3.45;;;;;;;;;;3392624;42;20086;-63
2022/09/15 09:09:07;;;;;;;9.45;3.40;;;;;;;;;;3362266;42;20095;-62
2022/09/15 09:11:33;;;;;;;8.37;3.13;;;;;;;;;;3385307;42;20090;-61
2022/09/15 09:14:05;;;;;;;9.48;3.70;;;;;;;;;;3395185;42;20078;-62
2022/09/15 09:16:58;;;;;;;10.45;4.05;;;;;;;;;;3395659;42;20568;-61
2022/09/15 09:19:48;;;;;;;9.85;3.70;;;;;;;;;;3377901;42;20094;-62
2022/09/15 09:22:22;;;;;;;11.10;3.88;;;;;;;;;;3389438;42;20085;-62
2022/09/15 09:24:50;;;;;;;9.53;4.10;;;;;;;;;;3388984;42;20603;-60
2022/09/15 09:27:18;;;;;;;9.32;4.38;;;;;;;;;;3379857;42;20105;-58
2022/09/15 09:29:48;;;;;;;9.60;4.50;;;;;;;;;;3386501;42;20151;-62
2022/09/15 09:32:33;;;;;;;10.70;4.07;;;;;;;;;;3387319;42;20083;-61
2022/09/15 09:35:03;;;;;;;10.57;4.30;;;;;;;;;;3381318;42;20090;-62
2022/09/15 09:37:29;;;;;;;8.70;4.10;;;;;;;;;;3396539;42;20181;-61
2022/09/15 09:39:55;;;;;;;11.77;3.97;;;;;;;;;;3385585;42;20160;-62
2022/09/15 09:42:23;;;;;;;12.20;4.43;;;;;;;;;;3395465;42;20093;-62
2022/09/15 09:44:49;;;;;;;11.43;4.85;;;;;;;;;;3385870;42;20133;-60
2022/09/15 09:47:16;;;;;;;11.73;4.80;;;;;;;;;;3385486;42;20125;-59
2022/09/15 09:49:44;;;;;;;12.90;5.47;;;;;;;;;;3395734;42;20222;-61
2022/09/15 09:52:11;;;;;;;16.27;5.40;;;;;;;;;;3369394;42;20098;-64
2022/09/15 09:54:37;;;;;;;11.80;4.97;;;;;;;;;;3385390;42;20092;-61
2022/09/15 09:57:12;;;;;;;11.93;5.15;;;;;;;;;;3385235;42;20083;-62
2022/09/15 09:59:48;;;;;;;12.67;5.13;;;;;;;;;;3395923;42;20163;-62
2022/09/15 10:02:21;;;;;;;13.18;5.07;;;;;;;;;;3394675;42;20086;-62
2022/09/15 10:04:48;;;;;;;10.30;5.00;;;;;;;;;;3394954;42;20154;-62
2022/09/15 10:07:17;;;;;;;12.30;4.97;;;;;;;;;;3395122;42;20140;-61
2022/09/15 10:09:51;;;;;;;12.57;4.93;;;;;;;;;;3385488;42;20102;-60
2022/09/15 10:12:28;;;;;;;13.43;4.33;;;;;;;;;;3386697;42;20154;-58
2022/09/15 10:14:55;;;;;;;9.68;4.80;;;;;;;;;;3378564;42;20087;-61
2022/09/15 10:17:26;;;;;;;14.10;5.63;;;;;;;;;;3386166;42;20086;-58
2022/09/15 10:19:56;;;;;;;14.50;5.70;;;;;;;;;;3384733;42;20532;-61
2022/09/15 10:22:31;;;;;;;11.68;5.63;;;;;;;;;;3385489;42;20082;-60
2022/09/15 10:24:57;;;;;;;15.73;6.00;;;;;;;;;;3385961;42;20511;-60
2022/09/15 10:27:26;;;;;;;13.90;6.20;;;;;;;;;;3385210;42;20088;-61
2022/09/15 10:29:53;;;;;;;12.98;6.22;;;;;;;;;;3397011;42;20087;-59
2022/09/15 10:32:30;;;;;;;15.38;6.40;;;;;;;;;;3395906;42;20279;-62
2022/09/15 10:35:12;;;;;;;14.00;6.35;;;;;;;;;;3383082;42;20576;-62
2022/09/15 10:37:53;;;;;;;12.77;6.13;;;;;;;;;;3383025;42;20163;-61
2022/09/15 10:40:33;;;;;;;13.85;7.13;;;;;;;;;;3391848;42;20106;-62
2022/09/15 10:43:10;;;;;;;17.48;7.20;;;;;;;;;;3394989;42;20499;-61
2022/09/15 10:45:40;;;;;;;15.23;7.45;;;;;;;;;;3385481;42;20161;-61
2022/09/15 10:48:28;;;;;;;14.52;7.60;;;;;;;;;;3378352;42;20188;-62
2022/09/15 10:51:16;;;;;;;15.60;6.73;;;;;;;;;;3395067;42;20283;-62
2022/09/15 10:54:05;;;;;;;18.88;7.80;;;;;;;;;;3372847;42;20541;-63
2022/09/15 10:56:41;;;;;;;13.93;6.95;;;;;;;;;;3378346;42;20200;-62
2022/09/15 10:59:23;;;;;;;17.63;7.35;;;;;;;;;;3386294;42;20090;-61
2022/09/15 11:02:18;;;;;;;15.20;7.15;;;;;;;;;;3395287;42;20095;-62
2022/09/15 11:05:00;;;;;;;18.43;7.50;;;;;;;;;;3387632;42;20083;-62
2022/09/15 11:07:38;;;;;;;13.98;6.85;;;;;;;;;;3385394;42;20563;-61
2022/09/15 11:10:13;;;;;;;16.20;7.50;;;;;;;;;;3379517;42;20086;-61
2022/09/15 11:12:55;;;;;;;16.45;7.50;;;;;;;;;;3395954;42;20182;-60
2022/09/15 11:15:21;;;;;;;17.27;7.95;;;;;;;;;;3379019;42;20602;-61
2022/09/15 11:18:03;;;;;;;17.33;7.90;;;;;;;;;;3394457;42;20577;-61
2022/09/15 11:20:50;;;;;;;16.83;7.90;;;;;;;;;;3386978;42;20091;-62
2022/09/15 11:23:20;;;;;;;16.77;7.97;;;;;;;;;;3395016;42;20556;-62
2022/09/15 11:25:49;;;;;;;17.67;8.30;;;;;;;;;;3387587;42;20544;-60
2022/09/15 11:28:47;;;;;;;19.38;8.38;;;;;;;;;;3389872;42;20159;-62
2022/09/15 11:31:18;;;;;;;17.67;8.10;;;;;;;;;;3387254;42;20748;-61
2022/09/15 11:33:49;;;;;;;17.80;8.43;;;;;;;;;;3389725;42;20077;-61
2022/09/15 11:36:35;;;;;;;18.33;8.10;;;;;;;;;;3386292;42;20194;-62
2022/09/15 11:39:25;;;;;;;17.42;8.23;;;;;;;;;;3390570;42;20183;-61
2022/09/15 11:41:58;;;;;;;18.80;8.10;;;;;;;;;;3389352;42;20168;-63
2022/09/15 11:44:28;;;;;;;20.23;8.57;;;;;;;;;;3386015;42;20082;-63
2022/09/15 11:47:06;;;;;;;18.38;8.82;;;;;;;;;;3388154;42;20089;-63
2022/09/15 11:49:49;;;;;;;21.48;9.00;;;;;;;;;;3395862;42;20094;-61
2022/09/15 11:52:38;;;;;;;22.38;9.20;;;;;;;;;;3388444;42;20116;-62
2022/09/15 11:55:21;;;;;;;21.38;9.18;;;;;;;;;;3385208;42;20087;-62
2022/09/15 11:58:07;;;;;;;19.67;9.27;;;;;;;;;;3387164;42;20089;-63
2022/09/15 12:00:35;;;;;;;19.42;9.15;;;;;;;;;;3378216;42;20145;-61
2022/09/15 12:03:19;;;;;;;21.42;9.18;;;;;;;;;;3380068;42;20090;-61
2022/09/15 12:05:53;;;;;;;21.15;9.70;;;;;;;;;;3396039;42;20587;-60
2022/09/15 12:08:40;;;;;;;18.10;9.02;;;;;;;;;;3394196;42;20098;-61
2022/09/15 12:11:09;;;;;;;20.33;8.80;;;;;;;;;;3377195;42;20086;-60
2022/09/15 12:13:35;;;;;;;18.25;8.57;;;;;;;;;;3376224;42;20101;-62
2022/09/15 12:16:02;;;;;;;18.27;8.82;;;;;;;;;;3384072;42;20129;-63
2022/09/15 12:18:45;;;;;;;19.45;9.40;;;;;;;;;;3386213;42;20120;-62
2022/09/15 12:21:35;;;;;;;18.63;9.18;;;;;;;;;;3387593;42;20121;-62
2022/09/15 12:24:04;;;;;;;20.00;9.50;;;;;;;;;;3386194;42;20120;-61
2022/09/15 12:26:31;;;;;;;18.08;8.98;;;;;;;;;;3387801;42;20090;-62
2022/09/15 12:29:02;;;;;;;19.73;9.80;;;;;;;;;;3378967;42;20165;-63
2022/09/15 12:31:38;;;;;;;21.63;9.95;;;;;;;;;;3387768;42;20545;-62
2022/09/15 12:34:25;;;;;;;21.02;10.18;;;;;;;;;;3385366;42;20105;-62
2022/09/15 12:36:52;;;;;;;22.50;10.37;;;;;;;;;;3382966;42;20078;-61
2022/09/15 12:39:39;;;;;;;21.90;10.32;;;;;;;;;;3386691;42;20078;-60
2022/09/15 12:42:07;;;;;;;20.92;10.00;;;;;;;;;;3386551;42;20089;-61
2022/09/15 12:44:41;;;;;;;24.85;11.32;;;;;;;;;;3386576;42;20091;-62
2022/09/15 12:47:35;;;;;;;22.10;10.07;;;;;;;;;;3387298;42;20203;-61
2022/09/15 12:50:20;;;;;;;23.57;10.80;;;;;;;;;;3386428;42;20090;-60
2022/09/15 12:52:50;;;;;;;19.83;9.88;;;;;;;;;;3382419;42;20705;-62
2022/09/15 12:55:26;;;;;;;22.80;10.80;;;;;;;;;;3385267;42;20090;-61
2022/09/15 12:58:00;;;;;;;21.70;10.75;;;;;;;;;;3387978;42;20224;-62
2022/09/15 13:00:34;;;;;;;23.58;11.43;;;;;;;;;;3387193;42;20116;-60
2022/09/15 13:03:00;;;;;;;22.60;11.17;;;;;;;;;;3394997;42;20081;-59
2022/09/15 13:05:41;;;;;;;24.38;10.30;;;;;;;;;;3386068;42;20113;-63
2022/09/15 13:08:14;;;;;;;23.08;11.38;;;;;;;;;;3393785;42;20094;-61
2022/09/15 13:10:58;;;;;;;24.35;11.57;;;;;;;;;;3383157;42;20436;-62
2022/09/15 13:13:53;;;;;;;23.50;11.60;;;;;;;;;;3391540;42;20078;-61
2022/09/15 13:16:31;;;;;;;24.30;11.00;;;;;;;;;;3372135;42;20106;-62
2022/09/15 13:19:13;;;;;;;25.13;10.55;;;;;;;;;;3383283;42;20087;-62
2022/09/15 13:21:41;;;;;;;27.42;11.70;;;;;;;;;;3368818;42;20090;-62
2022/09/15 13:24:11;;;;;;;23.27;10.85;;;;;;;;;;3374830;42;20078;-61
2022/09/15 13:26:37;;;;;;;23.23;10.73;;;;;;;;;;3381535;42;20099;-62
2022/09/15 13:29:05;;;;;;;23.33;11.17;;;;;;;;;;3381865;42;20091;-61
2022/09/15 13:31:52;;;;;;;18.83;9.98;;;;;;;;;;3372221;42;20094;-60
2022/09/15 13:34:26;;;;;;;20.33;9.35;;;;;;;;;;3391097;42;20083;-63
2022/09/15 13:37:02;;;;;;;16.15;7.68;;;;;;;;;;3392423;42;20134;-61
2022/09/15 13:40:00;;;;;;;14.10;7.23;;;;;;;;;;3383137;42;20093;-61
2022/09/15 13:43:03;;;;;;;14.63;7.32;;;;;;;;;;3391383;42;20087;-62
2022/09/15 13:45:42;;;;;;;12.93;5.60;;;;;;;;;;3382075;42;20567;-62
2022/09/15 13:48:32;;;;;;;11.50;5.50;;;;;;;;;;3391777;42;20117;-61
2022/09/15 13:51:00;;;;;;;10.40;5.50;;;;;;;;;;3391907;42;20083;-61
2022/09/15 13:53:44;;;;;;;11.93;5.37;;;;;;;;;;3378275;42;20102;-62
2022/09/15 13:56:37;;;;;;;10.90;5.50;;;;;;;;;;3392903;42;20182;-61
2022/09/15 13:59:03;;;;;;;10.35;5.00;;;;;;;;;;3379767;42;20137;-63
2022/09/15 14:01:34;;;;;;;9.57;4.53;;;;;;;;;;3382887;42;20148;-58
2022/09/15 14:04:06;;;;;;;9.93;4.70;;;;;;;;;;3391912;42;20094;-62
2022/09/15 14:06:36;;;;;;;10.10;4.83;;;;;;;;;;3391514;42;20079;-63
2022/09/15 14:09:07;;;;;;;9.57;4.43;;;;;;;;;;3392476;42;20091;-61
2022/09/15 14:11:34;;;;;;;9.68;4.30;;;;;;;;;;3381247;42;20225;-61
2022/09/15 14:14:00;;;;;;;8.00;3.92;;;;;;;;;;3381244;42;20109;-62
2022/09/15 14:16:26;;;;;;;8.18;3.80;;;;;;;;;;3372419;42;20172;-64
2022/09/15 14:18:54;;;;;;;8.73;4.03;;;;;;;;;;3392138;42;20090;-62
2022/09/15 14:21:24;;;;;;;8.77;3.72;;;;;;;;;;3393276;42;20097;-62
2022/09/15 14:23:52;;;;;;;8.27;4.07;;;;;;;;;;3395628;42;20567;-61
2022/09/15 14:26:19;;;;;;;8.18;3.90;;;;;;;;;;3385801;42;20082;-61
2022/09/15 14:28:54;;;;;;;9.13;3.80;;;;;;;;;;3383836;42;20103;-61
2022/09/15 14:31:49;;;;;;;8.40;3.67;;;;;;;;;;3383285;42;20087;-63
2022/09/15 14:34:22;;;;;;;7.70;3.58;;;;;;;;;;3386117;42;20156;-63
2022/09/15 14:37:06;;;;;;;8.40;3.78;;;;;;;;;;3379352;42;20116;-62
2022/09/15 14:39:36;;;;;;;8.18;3.58;;;;;;;;;;3370479;42;20553;-62
2022/09/15 14:42:21;;;;;;;9.90;3.55;;;;;;;;;;3382698;42;20099;-61
2022/09/15 14:44:47;;;;;;;7.57;3.63;;;;;;;;;;3370542;42;20638;-62
2022/09/15 14:47:25;;;;;;;7.40;3.40;;;;;;;;;;3381943;42;20079;-60
2022/09/15 14:50:10;;;;;;;8.13;3.50;;;;;;;;;;3378772;42;20109;-62
2022/09/15 14:53:03;;;;;;;7.40;3.25;;;;;;;;;;3368351;42;20082;-62
2022/09/15 14:55:57;;;;;;;7.63;3.15;;;;;;;;;;3383640;42;20136;-61
2022/09/15 14:58:28;;;;;;;7.37;3.20;;;;;;;;;;3390631;42;20094;-63
2022/09/15 15:00:56;;;;;;;7.13;3.20;;;;;;;;;;3391937;42;20177;-60